createdAt,value
2022-12-11T00:00:41.253Z,96033.75
2022-12-11T00:01:44.209Z,96027.19
2022-12-11T00:02:47.252Z,96021.87
2022-12-11T00:03:50.496Z,96018.84
2022-12-11T00:04:53.336Z,96025.44
2022-12-11T00:05:56.173Z,96020.19
2022-12-11T00:07:02.290Z,96025.50
2022-12-11T00:08:05.577Z,96017.66
2022-12-11T00:09:08.733Z,96020.66
2022-12-11T00:10:11.657Z,96023.81
2022-12-11T00:11:16.781Z,96018.25
2022-12-11T00:12:19.654Z,96017.47
2022-12-11T00:13:22.455Z,96015.34
2022-12-11T00:14:25.423Z,96006.94
2022-12-11T00:15:28.732Z,96016.25
2022-12-11T00:16:31.872Z,96013.53
2022-12-11T00:17:34.932Z,96008.28
2022-12-11T00:18:39.135Z,96012.28
2022-12-11T00:19:41.978Z,96001.75
2022-12-11T00:20:44.972Z,96002.19
2022-12-11T00:21:47.864Z,96004.78
2022-12-11T00:22:50.732Z,96001.75
2022-12-11T00:23:53.655Z,96000.22
2022-12-11T00:24:56.532Z,96002.38
2022-12-11T00:25:59.416Z,96006.66
2022-12-11T00:27:02.499Z,96003.81
2022-12-11T00:28:05.381Z,96013.81
2022-12-11T00:29:14.824Z,96008.69
2022-12-11T00:30:17.709Z,96003.12
2022-12-11T00:31:22.620Z,95996.97
2022-12-11T00:32:28.323Z,95995.44
2022-12-11T00:33:31.668Z,96007.84
2022-12-11T00:34:34.814Z,96013.13
2022-12-11T00:35:45.947Z,96008.81
2022-12-11T00:36:49.064Z,96004.69
2022-12-11T00:37:51.930Z,96010.81
2022-12-11T00:38:55.582Z,96009.84
2022-12-11T00:39:58.421Z,96005.91
2022-12-11T00:41:01.416Z,96000.22
2022-12-11T00:42:08.137Z,96003.62
2022-12-11T00:43:11.575Z,95999.37
2022-12-11T00:44:14.373Z,96003.50
2022-12-11T00:45:17.308Z,96003.75
2022-12-11T00:46:22.181Z,96007.91
2022-12-11T00:47:25.383Z,96008.91
2022-12-11T00:48:28.496Z,96017.28
2022-12-11T00:49:31.421Z,96010.47
2022-12-11T00:50:34.459Z,96006.75
2022-12-11T00:51:37.353Z,96011.47
2022-12-11T00:52:40.999Z,96019.19
2022-12-11T00:53:44.582Z,96017.91
2022-12-11T00:54:47.421Z,96014.66
2022-12-11T00:55:50.344Z,96010.47
2022-12-11T00:56:53.078Z,96013.06
2022-12-11T00:57:58.580Z,96021.59
2022-12-11T00:59:01.616Z,96016.19
2022-12-11T01:00:09.637Z,96019.50
2022-12-11T01:01:16.188Z,96008.66
2022-12-11T01:02:19.230Z,96006.25
2022-12-11T01:03:22.822Z,96007.94
2022-12-11T01:04:25.816Z,96011.25
2022-12-11T01:05:28.830Z,96017.78
2022-12-11T01:06:35.256Z,96016.78
2022-12-11T01:07:38.879Z,96020.47
2022-12-11T01:08:42.627Z,96009.38
2022-12-11T01:10:03.938Z,96008.81
2022-12-11T01:11:10.295Z,96008.66
2022-12-11T01:12:13.234Z,96004.41
2022-12-11T01:13:16.548Z,96009.25
2022-12-11T01:14:19.315Z,96009.56
2022-12-11T01:15:24.129Z,96010.84
2022-12-11T01:16:27.229Z,96007.84
2022-12-11T01:17:30.264Z,96019.81
2022-12-11T01:18:33.528Z,96023.91
2022-12-11T01:19:37.576Z,96021.66
2022-12-11T01:20:43.943Z,96021.81
2022-12-11T01:21:46.767Z,96025.09
2022-12-11T01:22:53.584Z,96021.97
2022-12-11T01:23:56.497Z,96019.81
2022-12-11T01:24:59.518Z,96027.09
2022-12-11T01:26:13.858Z,96021.69
2022-12-11T01:27:16.986Z,96026.09
2022-12-11T01:28:19.932Z,96030.91
2022-12-11T01:29:22.862Z,96026.66
2022-12-11T01:30:26.769Z,96031.94
2022-12-11T01:31:29.899Z,96024.25
2022-12-11T01:32:32.989Z,96027.09
2022-12-11T01:33:36.157Z,96024.25
2022-12-11T01:34:39.386Z,96031.97
2022-12-11T01:35:42.305Z,96024.69
2022-12-11T01:36:45.318Z,96027.56
2022-12-11T01:37:48.503Z,96026.12
2022-12-11T01:38:51.552Z,96036.22
2022-12-11T01:39:54.407Z,96029.97
2022-12-11T01:40:57.146Z,96035.38
2022-12-11T01:42:01.485Z,96039.50
2022-12-11T01:43:08.084Z,96033.09
2022-12-11T01:44:16.831Z,96029.25
2022-12-11T01:45:24.676Z,96032.81
2022-12-11T01:46:32.300Z,96023.28
2022-12-11T01:47:35.469Z,96022.72
2022-12-11T01:48:42.172Z,96022.72
2022-12-11T01:49:45.394Z,96023.28
2022-12-11T01:51:01.671Z,96022.16
2022-12-11T01:52:16.563Z,96035.09
2022-12-11T01:53:29.548Z,96032.97
2022-12-11T01:54:32.936Z,96034.25
2022-12-11T01:55:38.002Z,96049.62
2022-12-11T01:56:44.240Z,96045.09
2022-12-11T01:57:49.911Z,96041.97
2022-12-11T01:59:00.632Z,96035.97
2022-12-11T02:00:05.271Z,96040.97
2022-12-11T02:01:10.546Z,96036.09
2022-12-11T02:02:39.987Z,96036.69
2022-12-11T02:03:43.091Z,96040.81
2022-12-11T02:04:47.505Z,96036.09
2022-12-11T02:05:50.979Z,96030.56
2022-12-11T02:06:54.146Z,96035.84
2022-12-11T02:08:01.829Z,96042.09
2022-12-11T02:09:31.929Z,96041.50
2022-12-11T02:11:07.638Z,96037.84
2022-12-11T02:12:20.832Z,96040.97
2022-12-11T02:13:32.893Z,96033.69
2022-12-11T02:14:43.677Z,96023.44
2022-12-11T02:16:03.295Z,96022.16
2022-12-11T02:17:16.859Z,96025.59
2022-12-11T02:18:44.579Z,96017.31
2022-12-11T02:20:02.270Z,96028.56
2022-12-11T02:21:16.870Z,96030.28
2022-12-11T02:22:35.417Z,96032.41
2022-12-11T02:24:03.305Z,96039.50
2022-12-11T02:25:15.374Z,96028.16
2022-12-11T02:26:56.534Z,96031.97
2022-12-11T02:28:17.893Z,96032.41
2022-12-11T02:29:33.057Z,96019.91
2022-12-11T02:30:40.173Z,96020.75
2022-12-11T02:31:51.747Z,96013.47
2022-12-11T02:32:56.467Z,96018.28
2022-12-11T02:34:25.596Z,96020.72
2022-12-11T02:35:37.729Z,96020.16
2022-12-11T02:36:45.800Z,96021.56
2022-12-11T02:38:00.332Z,96018.56
2022-12-11T02:39:06.017Z,96025.69
2022-12-11T02:40:13.095Z,96011.34
2022-12-11T02:41:17.547Z,96011.06
2022-12-11T02:42:25.282Z,96006.06
2022-12-11T02:43:32.765Z,96008.34
2022-12-11T02:44:36.273Z,96000.37
2022-12-11T02:45:42.160Z,96004.75
2022-12-11T02:46:45.786Z,96005.06
2022-12-11T02:47:49.932Z,96002.53
2022-12-11T02:48:54.287Z,96001.50
2022-12-11T02:50:01.553Z,96009.03
2022-12-11T02:51:08.149Z,96005.78
2022-12-11T02:52:15.099Z,96014.59
2022-12-11T02:53:22.161Z,96001.78
2022-12-11T02:54:30.778Z,96000.81
2022-12-11T02:55:37.630Z,96004.22
2022-12-11T02:57:12.614Z,96007.31
2022-12-11T02:58:23.583Z,96003.78
2022-12-11T02:59:34.895Z,96002.19
2022-12-11T03:00:37.909Z,95998.78
2022-12-11T03:01:40.914Z,95991.97
2022-12-11T03:02:44.287Z,95999.50
2022-12-11T03:03:48.026Z,95996.94
2022-12-11T03:04:51.843Z,95988.41
2022-12-11T03:05:54.690Z,95994.22
2022-12-11T03:07:12.330Z,95998.38
2022-12-11T03:08:17.814Z,95993.53
2022-12-11T03:09:21.661Z,95992.66
2022-12-11T03:10:24.753Z,95984.00
2022-12-11T03:11:27.629Z,95981.72
2022-12-11T03:12:34.765Z,95981.00
2022-12-11T03:13:39.325Z,95985.56
2022-12-11T03:14:43.379Z,95982.84
2022-12-11T03:16:07.301Z,95984.84
2022-12-11T03:17:10.230Z,95983.44
2022-12-11T03:18:19.828Z,95992.37
2022-12-11T03:19:34.508Z,95980.84
2022-12-11T03:20:44.282Z,95982.97
2022-12-11T03:22:00.895Z,95998.94
2022-12-11T03:23:13.760Z,95988.25
2022-12-11T03:24:51.801Z,95984.84
2022-12-11T03:26:02.706Z,95987.53
2022-12-11T03:27:29.029Z,95990.38
2022-12-11T03:28:44.951Z,95988.12
2022-12-11T03:30:09.530Z,95984.84
2022-12-11T03:31:27.477Z,95998.50
2022-12-11T03:32:44.986Z,95992.25
2022-12-11T03:33:53.912Z,95988.81
2022-12-11T03:35:19.369Z,95985.69
2022-12-11T03:36:27.611Z,95989.25
2022-12-11T03:37:35.438Z,95982.84
2022-12-11T03:39:01.405Z,95985.69
2022-12-11T03:40:13.676Z,95989.09
2022-12-11T03:41:22.128Z,95981.25
2022-12-11T03:42:27.074Z,95982.56
2022-12-11T03:43:32.353Z,95976.31
2022-12-11T03:44:36.790Z,95979.13
2022-12-11T03:45:42.345Z,95976.87
2022-12-11T03:46:47.374Z,95983.13
2022-12-11T03:47:53.130Z,95983.13
2022-12-11T03:49:01.748Z,95993.22
2022-12-11T03:50:09.038Z,95986.09
2022-12-11T03:51:12.103Z,95992.91
2022-12-11T03:52:16.161Z,96001.75
2022-12-11T03:53:24.137Z,96000.47
2022-12-11T03:54:28.053Z,96006.31
2022-12-11T03:55:33.286Z,95998.94
2022-12-11T03:56:39.387Z,96005.75
2022-12-11T03:57:42.666Z,96006.16
2022-12-11T03:58:45.609Z,96002.75
2022-12-11T03:59:49.803Z,96010.00
2022-12-11T04:00:52.765Z,95997.88
2022-12-11T04:01:55.912Z,95994.06
2022-12-11T04:03:14.707Z,96010.28
2022-12-11T04:04:24.180Z,96007.84
2022-12-11T04:05:27.095Z,96020.25
2022-12-11T04:06:30.099Z,96009.44
2022-12-11T04:07:33.125Z,96013.56
2022-12-11T04:08:36.015Z,96023.53
2022-12-11T04:09:39.098Z,96015.53
2022-12-11T04:10:42.644Z,96010.81
2022-12-11T04:11:45.476Z,96017.09
2022-12-11T04:12:48.504Z,96025.78
2022-12-11T04:14:11.209Z,96014.09
2022-12-11T04:15:14.109Z,96016.81
2022-12-11T04:16:17.072Z,96017.06
2022-12-11T04:17:38.552Z,96020.34
2022-12-11T04:18:59.892Z,96021.75
2022-12-11T04:20:22.203Z,96023.31
2022-12-11T04:21:43.722Z,96021.63
2022-12-11T04:23:05.182Z,96022.19
2022-12-11T04:24:17.305Z,96016.81
2022-12-11T04:25:20.225Z,96027.03
2022-12-11T04:26:23.232Z,96016.22
2022-12-11T04:27:45.210Z,96028.88
2022-12-11T04:28:49.296Z,96026.91
2022-12-11T04:29:52.055Z,96032.00
2022-12-11T04:30:58.453Z,96033.84
2022-12-11T04:32:01.430Z,96028.59
2022-12-11T04:33:05.157Z,96035.28
2022-12-11T04:34:08.085Z,96034.97
2022-12-11T04:35:12.163Z,96039.66
2022-12-11T04:36:15.602Z,96056.16
2022-12-11T04:37:19.113Z,96037.97
2022-12-11T04:38:22.043Z,96041.66
2022-12-11T04:39:24.912Z,96033.69
2022-12-11T04:40:28.758Z,96038.69
2022-12-11T04:41:35.382Z,96036.56
2022-12-11T04:42:38.445Z,96047.06
2022-12-11T04:43:42.118Z,96045.19
2022-12-11T04:44:45.033Z,96047.06
2022-12-11T04:45:48.177Z,96047.50
2022-12-11T04:46:51.211Z,96046.06
2022-12-11T04:47:54.543Z,96051.78
2022-12-11T04:48:58.152Z,96048.66
2022-12-11T04:50:04.131Z,96070.53
2022-12-11T04:51:09.319Z,96064.41
2022-12-11T04:52:12.143Z,96064.41
2022-12-11T04:53:16.357Z,96065.12
2022-12-11T04:54:19.373Z,96061.88
2022-12-11T04:55:25.373Z,96060.16
2022-12-11T04:56:28.634Z,96070.25
2022-12-11T04:57:31.445Z,96059.72
2022-12-11T04:58:36.214Z,96065.28
2022-12-11T04:59:39.150Z,96068.41
2022-12-11T05:00:42.820Z,96068.25
2022-12-11T05:01:45.700Z,96076.37
2022-12-11T05:02:48.694Z,96070.25
2022-12-11T05:03:51.622Z,96079.78
2022-12-11T05:04:54.456Z,96082.63
2022-12-11T05:05:57.307Z,96075.78
2022-12-11T05:07:00.734Z,96086.03
2022-12-11T05:08:04.150Z,96086.59
2022-12-11T05:09:07.012Z,96092.72
2022-12-11T05:10:10.575Z,96093.41
2022-12-11T05:11:15.716Z,96095.72
2022-12-11T05:12:18.741Z,96104.84
2022-12-11T05:13:21.513Z,96089.88
2022-12-11T05:14:24.763Z,96095.28
2022-12-11T05:15:27.724Z,96086.59
2022-12-11T05:16:30.831Z,96086.03
2022-12-11T05:17:34.483Z,96096.44
2022-12-11T05:18:37.629Z,96097.84
2022-12-11T05:19:40.706Z,96097.84
2022-12-11T05:20:43.780Z,96110.06
2022-12-11T05:21:46.751Z,96104.97
2022-12-11T05:22:49.719Z,96097.13
2022-12-11T05:23:52.499Z,96092.84
2022-12-11T05:24:55.335Z,96098.56
2022-12-11T05:26:02.190Z,96099.28
2022-12-11T05:27:05.012Z,96096.44
2022-12-11T05:28:07.872Z,96101.22
2022-12-11T05:29:11.112Z,96098.37
2022-12-11T05:30:14.118Z,96106.53
2022-12-11T05:31:20.409Z,96105.97
2022-12-11T05:32:23.364Z,96095.84
2022-12-11T05:33:27.003Z,96095.00
2022-12-11T05:34:30.041Z,96090.84
2022-12-11T05:35:33.034Z,96101.25
2022-12-11T05:36:36.301Z,96094.59
2022-12-11T05:37:39.254Z,96094.19
2022-12-11T05:38:42.174Z,96092.31
2022-12-11T05:39:45.182Z,96093.56
2022-12-11T05:41:05.545Z,96097.00
2022-12-11T05:42:08.336Z,96094.12
2022-12-11T05:43:11.255Z,96092.44
2022-12-11T05:44:17.395Z,96093.41
2022-12-11T05:45:20.454Z,96096.13
2022-12-11T05:46:26.433Z,96092.56
2022-12-11T05:47:29.272Z,96102.66
2022-12-11T05:48:35.361Z,96104.38
2022-12-11T05:49:38.299Z,96098.81
2022-12-11T05:50:41.196Z,96100.09
2022-12-11T05:51:44.200Z,96112.66
2022-12-11T05:52:47.016Z,96098.56
2022-12-11T05:53:52.384Z,96092.31
2022-12-11T05:54:55.066Z,96093.16
2022-12-11T05:56:05.299Z,96093.88
2022-12-11T05:57:08.507Z,96101.00
2022-12-11T05:58:11.472Z,96094.88
2022-12-11T05:59:14.336Z,96105.69
2022-12-11T06:00:17.308Z,96100.41
2022-12-11T06:01:26.061Z,96099.97
2022-12-11T06:02:29.160Z,96092.97
2022-12-11T06:03:32.166Z,96094.38
2022-12-11T06:04:35.108Z,96101.66
2022-12-11T06:05:39.598Z,96116.88
2022-12-11T06:06:44.090Z,96113.47
2022-12-11T06:07:47.127Z,96123.84
2022-12-11T06:08:51.727Z,96121.16
2022-12-11T06:09:54.702Z,96131.09
2022-12-11T06:10:58.154Z,96120.69
2022-12-11T06:12:01.002Z,96143.03
2022-12-11T06:13:04.290Z,96131.66
2022-12-11T06:14:07.534Z,96145.72
2022-12-11T06:15:11.183Z,96145.72
2022-12-11T06:16:14.848Z,96148.28
2022-12-11T06:17:17.800Z,96152.72
2022-12-11T06:18:20.873Z,96160.66
2022-12-11T06:19:24.113Z,96160.19
2022-12-11T06:20:27.221Z,96156.94
2022-12-11T06:21:32.255Z,96168.22
2022-12-11T06:22:35.103Z,96175.75
2022-12-11T06:23:37.903Z,96164.63
2022-12-11T06:24:40.772Z,96172.91
2022-12-11T06:25:43.663Z,96172.91
2022-12-11T06:26:46.610Z,96172.34
2022-12-11T06:27:50.616Z,96177.16
2022-12-11T06:28:53.735Z,96170.81
2022-12-11T06:29:56.574Z,96174.72
2022-12-11T06:31:00.379Z,96176.56
2022-12-11T06:32:03.668Z,96185.91
2022-12-11T06:33:07.258Z,96181.97
2022-12-11T06:34:13.186Z,96181.00
2022-12-11T06:35:16.054Z,96191.94
2022-12-11T06:36:20.911Z,96189.25
2022-12-11T06:37:27.133Z,96194.66
2022-12-11T06:38:30.062Z,96193.06
2022-12-11T06:39:33.257Z,96196.91
2022-12-11T06:40:36.158Z,96203.25
2022-12-11T06:41:43.987Z,96193.31
2022-12-11T06:42:46.866Z,96196.34
2022-12-11T06:43:50.973Z,96207.69
2022-12-11T06:44:53.740Z,96210.56
2022-12-11T06:46:02.097Z,96208.28
2022-12-11T06:47:06.575Z,96203.88
2022-12-11T06:48:09.977Z,96206.19
2022-12-11T06:49:12.817Z,96209.38
2022-12-11T06:50:15.737Z,96198.19
2022-12-11T06:51:21.380Z,96211.81
2022-12-11T06:52:26.064Z,96216.91
2022-12-11T06:53:29.124Z,96205.72
2022-12-11T06:54:32.217Z,96218.81
2022-12-11T06:55:36.373Z,96225.09
2022-12-11T06:56:39.214Z,96220.50
2022-12-11T06:57:42.104Z,96216.91
2022-12-11T06:58:48.454Z,96223.75
2022-12-11T06:59:51.657Z,96216.06
2022-12-11T07:00:54.521Z,96224.16
2022-12-11T07:01:57.630Z,96214.06
2022-12-11T07:03:00.575Z,96217.09
2022-12-11T07:04:03.498Z,96220.75
2022-12-11T07:05:07.177Z,96212.66
2022-12-11T07:06:10.376Z,96219.63
2022-12-11T07:07:13.628Z,96212.22
2022-12-11T07:08:16.801Z,96208.28
2022-12-11T07:09:20.114Z,96223.44
2022-12-11T07:10:23.398Z,96222.97
2022-12-11T07:11:26.187Z,96224.72
2022-12-11T07:12:28.955Z,96219.16
2022-12-11T07:13:32.369Z,96230.38
2022-12-11T07:14:35.348Z,96228.37
2022-12-11T07:15:40.490Z,96229.63
2022-12-11T07:16:43.662Z,96231.94
2022-12-11T07:17:46.601Z,96245.91
2022-12-11T07:18:51.786Z,96242.50
2022-12-11T07:19:54.855Z,96229.31
2022-12-11T07:21:01.157Z,96234.88
2022-12-11T07:22:03.934Z,96242.81
2022-12-11T07:23:06.968Z,96235.09
2022-12-11T07:24:09.965Z,96236.28
2022-12-11T07:25:12.977Z,96249.91
2022-12-11T07:26:19.715Z,96237.81
2022-12-11T07:27:22.783Z,96216.19
2022-12-11T07:28:26.519Z,96234.88
2022-12-11T07:29:29.418Z,96238.69
2022-12-11T07:30:32.264Z,96230.41
2022-12-11T07:31:35.441Z,96237.81
2022-12-11T07:32:38.445Z,96239.22
2022-12-11T07:33:42.538Z,96246.09
2022-12-11T07:34:51.397Z,96238.69
2022-12-11T07:35:54.692Z,96254.91
2022-12-11T07:36:57.627Z,96259.03
2022-12-11T07:38:00.727Z,96254.66
2022-12-11T07:39:03.909Z,96268.00
2022-12-11T07:40:08.178Z,96277.75
2022-12-11T07:41:13.322Z,96267.38
2022-12-11T07:42:20.130Z,96273.34
2022-12-11T07:43:23.087Z,96273.09
2022-12-11T07:44:25.974Z,96269.28
2022-12-11T07:45:29.825Z,96264.09
2022-12-11T07:46:33.982Z,96269.66
2022-12-11T07:47:37.025Z,96265.72
2022-12-11T07:48:45.415Z,96275.25
2022-12-11T07:49:48.689Z,96281.34
2022-12-11T07:50:51.484Z,96278.50
2022-12-11T07:51:54.334Z,96282.22
2022-12-11T07:52:57.277Z,96279.69
2022-12-11T07:54:02.815Z,96285.31
2022-12-11T07:55:06.232Z,96283.91
2022-12-11T07:56:09.368Z,96286.59
2022-12-11T07:57:14.368Z,96300.19
2022-12-11T07:58:17.967Z,96297.47
2022-12-11T07:59:21.420Z,96308.28
2022-12-11T08:00:24.316Z,96307.00
2022-12-11T08:01:33.707Z,96301.06
2022-12-11T08:02:38.140Z,96302.63
2022-12-11T08:03:41.108Z,96303.81
2022-12-11T08:04:47.175Z,96304.16
2022-12-11T08:05:51.840Z,96322.50
2022-12-11T08:08:02.775Z,96306.69
2022-12-11T08:09:09.174Z,96306.13
2022-12-11T08:10:12.214Z,96299.63
2022-12-11T08:11:17.310Z,96311.94
2022-12-11T08:12:20.130Z,96323.84
2022-12-11T08:13:22.926Z,96316.22
2022-12-11T08:14:25.843Z,96322.03
2022-12-11T08:15:28.572Z,96325.28
2022-12-11T08:16:33.121Z,96322.19
2022-12-11T08:17:40.048Z,96327.19
2022-12-11T08:18:45.510Z,96332.59
2022-12-11T08:19:48.294Z,96338.00
2022-12-11T08:20:51.631Z,96336.94
2022-12-11T08:21:54.432Z,96342.34
2022-12-11T08:22:59.351Z,96338.22
2022-12-11T08:24:02.454Z,96334.66
2022-12-11T08:25:09.593Z,96341.16
2022-12-11T08:26:19.195Z,96343.00
2022-12-11T08:27:22.467Z,96335.75
2022-12-11T08:28:27.168Z,96343.00
2022-12-11T08:29:30.305Z,96348.50
2022-12-11T08:30:33.269Z,96345.72
2022-12-11T08:31:42.158Z,96350.78
2022-12-11T08:32:45.141Z,96352.06
2022-12-11T08:33:48.926Z,96352.63
2022-12-11T08:34:56.129Z,96345.38
2022-12-11T08:35:59.045Z,96348.25
2022-12-11T08:37:01.871Z,96349.34
2022-12-11T08:38:05.170Z,96356.59
2022-12-11T08:39:09.896Z,96352.44
2022-12-11T08:40:12.910Z,96355.31
2022-12-11T08:41:20.108Z,96353.50
2022-12-11T08:42:22.921Z,96361.69
2022-12-11T08:43:25.912Z,96359.94
2022-12-11T08:44:28.809Z,96354.12
2022-12-11T08:45:33.333Z,96367.09
2022-12-11T08:46:36.785Z,96372.81
2022-12-11T08:47:43.162Z,96377.81
2022-12-11T08:48:47.100Z,96375.66
2022-12-11T08:49:49.935Z,96372.41
2022-12-11T08:50:52.678Z,96374.53
2022-12-11T08:51:55.515Z,96372.97
2022-12-11T08:52:58.722Z,96371.22
2022-12-11T08:54:01.857Z,96371.06
2022-12-11T08:55:04.923Z,96369.06
2022-12-11T08:56:10.939Z,96372.63
2022-12-11T08:57:14.385Z,96365.94
2022-12-11T08:58:18.734Z,96373.69
2022-12-11T08:59:21.966Z,96377.09
2022-12-11T09:00:24.848Z,96372.97
2022-12-11T09:01:28.460Z,96378.22
2022-12-11T09:02:31.596Z,96389.16
2022-12-11T09:03:34.717Z,96385.53
2022-12-11T09:04:37.477Z,96392.03
2022-12-11T09:05:40.556Z,96371.84
2022-12-11T09:06:47.337Z,96370.81
2022-12-11T09:07:50.427Z,96374.78
2022-12-11T09:08:54.537Z,96371.53
2022-12-11T09:09:57.335Z,96389.16
2022-12-11T09:11:05.416Z,96372.25
2022-12-11T09:12:08.471Z,96388.47
2022-12-11T09:13:11.329Z,96381.22
2022-12-11T09:14:16.363Z,96387.91
2022-12-11T09:15:19.384Z,96381.94
2022-12-11T09:16:25.495Z,96380.69
2022-12-11T09:17:28.438Z,96385.66
2022-12-11T09:18:31.983Z,96375.44
2022-12-11T09:19:34.832Z,96374.53
2022-12-11T09:20:38.212Z,96378.28
2022-12-11T09:21:43.062Z,96375.56
2022-12-11T09:22:46.338Z,96376.69
2022-12-11T09:23:53.183Z,96383.53
2022-12-11T09:24:56.118Z,96387.50
2022-12-11T09:25:59.796Z,96381.69
2022-12-11T09:27:03.465Z,96394.91
2022-12-11T09:28:06.579Z,96380.50
2022-12-11T09:29:11.187Z,96379.22
2022-12-11T09:30:14.557Z,96384.81
2022-12-11T09:31:20.901Z,96394.72
2022-12-11T09:32:23.768Z,96398.56
2022-12-11T09:33:26.746Z,96408.09
2022-12-11T09:34:29.771Z,96405.94
2022-12-11T09:35:36.175Z,96410.63
2022-12-11T09:36:40.528Z,96395.44
2022-12-11T09:37:43.398Z,96401.34
2022-12-11T09:38:46.868Z,96410.41
2022-12-11T09:39:49.727Z,96401.16
2022-12-11T09:40:52.560Z,96408.94
2022-12-11T09:42:07.558Z,96397.19
2022-12-11T09:43:31.655Z,96398.78
2022-12-11T09:44:53.412Z,96408.19
2022-12-11T09:45:56.742Z,96399.75
2022-12-11T09:47:00.088Z,96400.12
2022-12-11T09:48:08.110Z,96401.56
2022-12-11T09:49:26.010Z,96404.25
2022-12-11T09:50:33.295Z,96421.50
2022-12-11T09:52:00.381Z,96408.41
2022-12-11T09:53:11.279Z,96399.19
2022-12-11T09:54:15.173Z,96401.16
2022-12-11T09:55:25.956Z,96387.09
2022-12-11T09:56:42.922Z,96388.69
2022-12-11T09:57:45.798Z,96401.09
2022-12-11T09:58:58.663Z,96395.72
2022-12-11T10:00:18.191Z,96390.44
2022-12-11T10:01:27.367Z,96386.00
2022-12-11T10:02:46.497Z,96385.63
2022-12-11T10:04:13.899Z,96384.91
2022-12-11T10:05:16.755Z,96380.75
2022-12-11T10:06:30.661Z,96366.44
2022-12-11T10:07:36.512Z,96368.19
2022-12-11T10:09:24.651Z,96373.84
2022-12-11T10:10:39.422Z,96357.63
2022-12-11T10:11:45.380Z,96367.69
2022-12-11T10:13:02.139Z,96373.69
2022-12-11T10:14:20.515Z,96378.38
2022-12-11T10:15:46.198Z,96387.03
2022-12-11T10:17:08.223Z,96380.25
2022-12-11T10:18:17.571Z,96389.56
2022-12-11T10:19:28.017Z,96391.41
2022-12-11T10:20:39.731Z,96390.44
2022-12-11T10:21:42.788Z,96393.16
2022-12-11T10:22:46.206Z,96399.84
2022-12-11T10:23:54.495Z,96386.31
2022-12-11T10:25:16.557Z,96394.66
2022-12-11T10:26:22.473Z,96400.38
2022-12-11T10:27:33.594Z,96396.09
2022-12-11T10:28:37.029Z,96386.38
2022-12-11T10:29:43.155Z,96403.72
2022-12-11T10:31:04.981Z,96402.44
2022-12-11T10:32:18.743Z,96404.75
2022-12-11T10:33:27.422Z,96414.13
2022-12-11T10:34:37.948Z,96415.94
2022-12-11T10:35:48.133Z,96413.03
2022-12-11T10:36:52.818Z,96411.19
2022-12-11T10:38:12.505Z,96401.66
2022-12-11T10:39:21.726Z,96393.72
2022-12-11T10:40:26.228Z,96392.81
2022-12-11T10:41:38.940Z,96407.47
2022-12-11T10:42:55.203Z,96410.00
2022-12-11T10:43:58.117Z,96421.69
2022-12-11T10:45:04.316Z,96415.25
2022-12-11T10:46:15.023Z,96413.81
2022-12-11T10:47:18.861Z,96420.66
2022-12-11T10:48:22.391Z,96428.19
2022-12-11T10:49:30.419Z,96433.81
2022-12-11T10:50:33.556Z,96431.84
2022-12-11T10:51:37.991Z,96437.25
2022-12-11T10:52:45.698Z,96423.41
2022-12-11T10:54:04.015Z,96431.12
2022-12-11T10:55:18.536Z,96422.16
2022-12-11T10:56:29.549Z,96427.84
2022-12-11T10:57:37.319Z,96416.75
2022-12-11T10:58:50.245Z,96425.72
2022-12-11T10:59:53.292Z,96423.03
2022-12-11T11:01:16.895Z,96421.91
2022-12-11T11:02:45.471Z,96425.09
2022-12-11T11:04:03.444Z,96435.91
2022-12-11T11:05:27.819Z,96439.56
2022-12-11T11:06:31.075Z,96432.88
2022-12-11T11:07:34.595Z,96425.87
2022-12-11T11:08:44.353Z,96427.16
2022-12-11T11:09:47.430Z,96435.09
2022-12-11T11:10:58.931Z,96434.37
2022-12-11T11:12:07.666Z,96446.06
2022-12-11T11:13:13.921Z,96437.09
2022-12-11T11:14:25.963Z,96437.25
2022-12-11T11:15:34.182Z,96427.16
2022-12-11T11:16:42.340Z,96422.78
2022-12-11T11:17:55.966Z,96419.69
2022-12-11T11:18:59.228Z,96419.28
2022-12-11T11:20:13.552Z,96419.28
2022-12-11T11:21:19.240Z,96413.34
2022-12-11T11:22:22.363Z,96406.09
2022-12-11T11:23:26.302Z,96416.75
2022-12-11T11:24:37.024Z,96411.59
2022-12-11T11:25:40.656Z,96411.59
2022-12-11T11:27:12.327Z,96407.06
2022-12-11T11:28:16.126Z,96409.03
2022-12-11T11:29:32.258Z,96416.75
2022-12-11T11:30:46.130Z,96422.72
2022-12-11T11:31:48.950Z,96413.66
2022-12-11T11:32:56.586Z,96417.63
2022-12-11T11:34:05.630Z,96399.66
2022-12-11T11:35:11.807Z,96412.44
2022-12-11T11:36:21.108Z,96410.47
2022-12-11T11:37:32.526Z,96424.88
2022-12-11T11:39:01.552Z,96423.03
2022-12-11T11:40:16.861Z,96429.56
2022-12-11T11:41:39.162Z,96432.25
2022-12-11T11:43:08.211Z,96428.44
2022-12-11T11:44:20.513Z,96439.88
2022-12-11T11:45:35.921Z,96436.88
2022-12-11T11:46:46.583Z,96444.50
2022-12-11T11:48:11.439Z,96441.94
2022-12-11T11:49:14.648Z,96442.84
2022-12-11T11:50:27.331Z,96438.16
2022-12-11T11:51:50.949Z,96439.09
2022-12-11T11:53:20.474Z,96432.25
2022-12-11T11:54:33.701Z,96437.50
2022-12-11T11:56:18.408Z,96432.75
2022-12-11T11:58:04.667Z,96448.06
2022-12-11T11:59:16.272Z,96455.22
2022-12-11T12:00:28.845Z,96453.66
2022-12-11T12:01:36.728Z,96445.94
2022-12-11T12:02:42.085Z,96450.38
2022-12-11T12:03:47.362Z,96456.19
2022-12-11T12:04:51.521Z,96454.03
2022-12-11T12:06:14.719Z,96456.50
2022-12-11T12:07:36.633Z,96464.47
2022-12-11T12:08:51.479Z,96465.88
2022-12-11T12:10:16.958Z,96465.16
2022-12-11T12:11:22.833Z,96463.78
2022-12-11T12:12:43.784Z,96466.94
2022-12-11T12:14:43.580Z,96471.37
2022-12-11T12:15:56.373Z,96465.56
2022-12-11T12:17:11.316Z,96469.31
2022-12-11T12:18:27.194Z,96467.47
2022-12-11T12:19:53.208Z,96472.72
2022-12-11T12:21:27.920Z,96457.78
2022-12-11T12:22:54.925Z,96462.63
2022-12-11T12:24:12.388Z,96462.47
2022-12-11T12:25:34.492Z,96467.69
2022-12-11T12:26:41.663Z,96466.84
2022-12-11T12:28:14.614Z,96468.97
2022-12-11T12:29:46.810Z,96462.63
2022-12-11T12:30:55.838Z,96467.41
2022-12-11T12:32:28.769Z,96459.59
2022-12-11T12:33:39.438Z,96450.72
2022-12-11T12:34:52.197Z,96466.22
2022-12-11T12:36:37.798Z,96456.84
2022-12-11T12:38:01.306Z,96448.16
2022-12-11T12:39:28.605Z,96447.44
2022-12-11T12:40:46.788Z,96443.13
2022-12-11T12:42:16.373Z,96444.13
2022-12-11T12:43:27.489Z,96447.69
2022-12-11T12:44:44.797Z,96441.72
2022-12-11T12:46:20.191Z,96450.84
2022-12-11T12:47:23.836Z,96459.53
2022-12-11T12:48:27.656Z,96464.53
2022-12-11T12:49:40.161Z,96470.34
2022-12-11T12:50:47.008Z,96463.03
2022-12-11T12:51:52.422Z,96474.56
2022-12-11T12:52:56.783Z,96469.44
2022-12-11T12:54:06.568Z,96476.31
2022-12-11T12:55:18.636Z,96477.06
2022-12-11T12:56:22.925Z,96482.47
2022-12-11T12:57:25.834Z,96482.34
2022-12-11T12:58:40.059Z,96491.00
2022-12-11T12:59:46.441Z,96493.63
2022-12-11T13:00:49.677Z,96503.72
2022-12-11T13:02:02.103Z,96508.56
2022-12-11T13:03:33.156Z,96500.31
2022-12-11T13:04:55.429Z,96508.63
2022-12-11T13:06:03.694Z,96515.25
2022-12-11T13:07:30.237Z,96517.09
2022-12-11T13:08:50.695Z,96514.47
2022-12-11T13:10:00.728Z,96520.56
2022-12-11T13:11:10.543Z,96517.34
2022-12-11T13:12:16.163Z,96522.56
2022-12-11T13:13:50.223Z,96515.41
2022-12-11T13:14:57.575Z,96527.34
2022-12-11T13:16:23.853Z,96531.63
2022-12-11T13:17:37.833Z,96524.97